Time;durP1;ratioP1;P1;durP2;ratioP2;P2;SDS_P1;SDS_P2;PMS_P1;PMS_P2;Temp;Humidity;BMP_temperature;BMP_pressure;BME280_temperature;BME280_humidity;BME280_pressure;Samples;Min_cycle;Max_cycle;Signal;HPM_P1;HPM_P2
2022/03/24 00:01:27;;;;;;;47.47;31.90;;;;;;;11.05;47.07;102712.84;5019213;28;20182;-72
2022/03/24 00:03:52;;;;;;;41.33;29.43;;;;;;;11.35;52.04;102713.16;5019149;28;20531;-67
2022/03/24 00:06:18;;;;;;;23.50;18.20;;;;;;;15.12;51.30;102697.47;5019667;28;20166;-68
2022/03/24 00:08:43;;;;;;;24.70;19.83;;;;;;;15.89;47.63;102685.06;5019120;28;20171;-69
2022/03/24 00:11:08;;;;;;;30.47;19.43;;;;;;;15.76;42.78;102689.16;5018926;28;20614;-67
2022/03/24 00:13:34;;;;;;;45.97;31.37;;;;;;;14.00;40.60;102693.84;5018981;28;20170;-69
2022/03/24 00:16:00;;;;;;;41.80;30.30;;;;;;;12.41;43.81;102700.41;5018193;28;20163;-71
2022/03/24 00:18:25;;;;;;;41.80;30.00;;;;;;;12.10;44.37;102699.34;5019036;28;20439;-71
2022/03/24 00:20:51;;;;;;;43.57;32.13;;;;;;;11.59;45.87;102697.50;5019340;28;20174;-72
2022/03/24 00:23:16;;;;;;;45.60;32.10;;;;;;;11.48;46.23;102697.94;5017751;28;20596;-70
2022/03/24 00:25:41;;;;;;;41.10;30.63;;;;;;;11.52;46.33;102700.72;5019116;28;20198;-70
2022/03/24 00:28:07;;;;;;;47.13;33.07;;;;;;;10.95;47.36;102693.34;5019460;28;20436;-69
2022/03/24 00:30:32;;;;;;;45.60;31.40;;;;;;;10.93;47.11;102698.50;5018771;28;20501;-72
2022/03/24 00:32:57;;;;;;;45.10;31.90;;;;;;;10.74;48.17;102696.88;5017891;28;20477;-72
2022/03/24 00:35:24;;;;;;;47.90;32.10;;;;;;;10.60;48.24;102701.50;5019554;28;20214;-72
2022/03/24 00:37:50;;;;;;;47.77;31.60;;;;;;;10.66;48.05;102693.03;5018804;28;20173;-72
2022/03/24 00:40:16;;;;;;;49.70;32.50;;;;;;;10.52;48.34;102687.25;5018378;28;20458;-70
2022/03/24 00:42:42;;;;;;;48.57;31.07;;;;;;;10.59;48.29;102691.91;5018865;28;20883;-69
2022/03/24 00:45:12;;;;;;;44.00;30.70;;;;;;;10.54;48.87;102692.53;5018413;28;20453;-72
2022/03/24 00:47:40;;;;;;;46.37;32.20;;;;;;;10.49;48.52;102681.94;5018190;28;20167;-74
2022/03/24 00:50:07;;;;;;;49.53;31.07;;;;;;;10.76;48.31;102683.88;5019316;28;20406;-77
2022/03/24 00:52:33;;;;;;;50.27;32.20;;;;;;;10.96;47.96;102676.84;5018817;28;20420;-75
2022/03/24 00:54:58;;;;;;;48.50;31.97;;;;;;;11.04;47.87;102685.88;5019038;28;20414;-75
2022/03/24 00:57:24;;;;;;;47.37;33.93;;;;;;;10.52;48.94;102684.66;5019471;28;20232;-75
2022/03/24 00:59:49;;;;;;;44.90;31.37;;;;;;;10.76;48.43;102683.88;5017956;28;20175;-74
2022/03/24 01:02:14;;;;;;;46.90;33.30;;;;;;;10.79;48.16;102676.16;5018578;28;20179;-75
2022/03/24 01:04:41;;;;;;;46.90;32.90;;;;;;;10.92;48.35;102674.94;5019445;28;20166;-76
2022/03/24 01:07:07;;;;;;;44.03;31.70;;;;;;;10.76;48.62;102673.44;5018870;28;20182;-76
2022/03/24 01:09:32;;;;;;;48.80;31.87;;;;;;;10.77;48.60;102677.81;5018463;28;20418;-75
2022/03/24 01:11:57;;;;;;;48.40;31.20;;;;;;;10.57;49.50;102671.81;5019289;28;20186;-74
2022/03/24 01:14:23;;;;;;;47.60;32.53;;;;;;;10.52;48.99;102673.34;5018849;28;20301;-74
2022/03/24 01:16:51;;;;;;;47.87;34.30;;;;;;;10.39;49.37;102669.31;5018347;28;20171;-75
2022/03/24 01:19:16;;;;;;;50.13;33.37;;;;;;;10.68;48.71;102661.81;5034697;28;20182;-74
2022/03/24 01:21:42;;;;;;;47.97;33.13;;;;;;;10.64;49.22;102668.63;5018429;28;20771;-73
2022/03/24 01:24:08;;;;;;;47.60;33.23;;;;;;;10.29;50.35;102670.63;5018876;28;20618;-75
2022/03/24 01:26:34;;;;;;;49.50;33.10;;;;;;;10.48;49.15;102667.09;5019264;28;20170;-74
2022/03/24 01:28:59;;;;;;;51.00;34.00;;;;;;;10.63;49.54;102674.66;5018734;28;20679;-75
2022/03/24 01:31:25;;;;;;;46.30;34.13;;;;;;;10.22;49.22;102673.81;5018663;28;20410;-75
2022/03/24 01:33:50;;;;;;;49.93;35.30;;;;;;;10.39;49.43;102662.41;5018738;28;20227;-76
2022/03/24 01:36:18;;;;;;;48.50;33.83;;;;;;;10.39;49.00;102665.00;5018887;28;20560;-75
2022/03/24 01:38:44;;;;;;;50.77;33.07;;;;;;;10.46;49.30;102674.00;5019004;28;20249;-76
2022/03/24 01:41:09;;;;;;;50.10;33.40;;;;;;;9.71;50.60;102672.50;5018287;28;20689;-76
2022/03/24 01:43:35;;;;;;;47.40;34.17;;;;;;;10.20;50.75;102670.25;5020125;28;20195;-75
2022/03/24 01:46:00;;;;;;;49.40;33.10;;;;;;;9.58;51.15;102672.81;5023026;28;20171;-76
2022/03/24 01:48:26;;;;;;;55.17;34.87;;;;;;;10.15;50.15;102663.94;5022469;28;20813;-76
2022/03/24 01:50:52;;;;;;;57.23;34.60;;;;;;;10.05;50.30;102662.66;5022213;28;20238;-77
2022/03/24 01:53:18;;;;;;;43.17;32.43;;;;;;;10.24;50.77;102661.72;5022540;28;20412;-77
2022/03/24 01:55:44;;;;;;;49.90;33.47;;;;;;;10.29;50.16;102663.69;5023642;28;20171;-75
2022/03/24 01:58:11;;;;;;;48.73;32.97;;;;;;;10.06;50.38;102662.72;5023814;28;20171;-76
2022/03/24 02:00:37;;;;;;;54.53;33.30;;;;;;;10.16;50.83;102658.81;5027668;28;20405;-75
2022/03/24 02:03:04;;;;;;;52.50;34.20;;;;;;;10.01;50.59;102661.66;5036353;28;20465;-76
2022/03/24 02:05:34;;;;;;;50.77;34.07;;;;;;;9.79;51.32;102659.81;5022325;28;20175;-75
2022/03/24 02:08:03;;;;;;;42.27;32.03;;;;;;;9.73;51.58;102667.38;5022393;28;20405;-75
2022/03/24 02:10:33;;;;;;;49.00;33.57;;;;;;;9.75;51.25;102661.38;5021822;28;20422;-77
2022/03/24 02:12:58;;;;;;;47.70;33.70;;;;;;;9.71;51.30;102656.88;5022160;28;20676;-76
2022/03/24 02:15:25;;;;;;;51.77;35.47;;;;;;;9.61;51.72;102663.38;5022477;28;20409;-76
2022/03/24 02:17:52;;;;;;;52.00;34.27;;;;;;;9.61;51.86;102662.50;5021499;28;20197;-77
2022/03/24 02:20:18;;;;;;;49.10;34.50;;;;;;;9.42;52.16;102653.88;5021918;28;20413;-75
2022/03/24 02:22:44;;;;;;;48.43;33.67;;;;;;;9.44;52.62;102653.94;5022360;28;20504;-76
2022/03/24 02:25:09;;;;;;;48.30;34.07;;;;;;;9.63;52.79;102644.34;5021679;28;20460;-76
2022/03/24 02:27:36;;;;;;;52.70;32.67;;;;;;;9.49;52.82;102657.63;5021557;28;20441;-75
2022/03/24 02:30:03;;;;;;;52.20;32.70;;;;;;;9.70;52.34;102647.31;5022018;28;20246;-76
2022/03/24 02:32:29;;;;;;;51.20;32.47;;;;;;;9.76;52.23;102651.88;5021045;28;20528;-76
2022/03/24 02:34:54;;;;;;;46.03;32.53;;;;;;;9.61;52.45;102647.75;5020970;28;20426;-76
2022/03/24 02:37:22;;;;;;;51.87;33.30;;;;;;;9.47;51.99;102645.38;5022098;28;20173;-74
2022/03/24 02:39:53;;;;;;;49.40;34.70;;;;;;;9.80;52.38;102643.38;5020595;28;20190;-71
2022/03/24 02:42:22;;;;;;;50.57;34.27;;;;;;;9.82;52.17;102640.84;5021218;28;20413;-72
2022/03/24 02:44:49;;;;;;;43.03;32.87;;;;;;;9.24;52.66;102653.94;5021238;28;20425;-70
2022/03/24 02:47:16;;;;;;;48.53;34.60;;;;;;;9.27;52.82;102646.25;5036737;28;20414;-74
2022/03/24 02:49:43;;;;;;;51.53;34.40;;;;;;;9.52;53.09;102646.47;5021531;28;20415;-73
2022/03/24 02:52:09;;;;;;;49.53;33.70;;;;;;;9.48;52.77;102647.16;5020008;28;20886;-73
2022/03/24 02:54:35;;;;;;;51.30;34.77;;;;;;;9.63;53.00;102645.22;5020381;28;20671;-74
2022/03/24 02:57:01;;;;;;;49.77;33.93;;;;;;;9.10;53.58;102649.78;5021187;28;20437;-75
2022/03/24 02:59:27;;;;;;;47.53;32.30;;;;;;;9.20;53.43;102643.28;5020914;28;20425;-74
2022/03/24 03:01:59;;;;;;;48.93;33.60;;;;;;;9.23;53.72;102640.84;5020767;28;20827;-73
2022/03/24 03:04:24;;;;;;;55.23;34.50;;;;;;;9.32;52.96;102637.75;5021671;28;20206;-74
2022/03/24 03:06:50;;;;;;;53.23;34.37;;;;;;;9.27;53.38;102645.38;5020621;28;20675;-73
2022/03/24 03:09:16;;;;;;;45.60;32.30;;;;;;;9.19;53.78;102644.13;5020746;28;20167;-73
2022/03/24 03:11:44;;;;;;;53.43;35.90;;;;;;;9.31;53.39;102644.69;5021005;28;20179;-75
2022/03/24 03:14:11;;;;;;;52.57;34.57;;;;;;;8.95;54.79;102655.16;5020351;28;20436;-73
2022/03/24 03:16:37;;;;;;;48.97;33.50;;;;;;;9.29;53.70;102653.25;5020700;28;20417;-73
2022/03/24 03:19:03;;;;;;;50.40;34.70;;;;;;;8.98;54.14;102646.63;5021478;28;20413;-74
2022/03/24 03:21:29;;;;;;;50.90;33.50;;;;;;;9.14;54.24;102648.22;5020639;28;20513;-73
2022/03/24 03:23:54;;;;;;;48.37;33.90;;;;;;;9.15;54.05;102648.28;5020528;28;20695;-75
2022/03/24 03:26:20;;;;;;;50.23;34.07;;;;;;;9.02;54.19;102641.63;5020879;28;20439;-73
2022/03/24 03:28:45;;;;;;;52.33;35.97;;;;;;;8.73;54.43;102648.94;5020657;28;20167;-73
2022/03/24 03:31:11;;;;;;;52.60;35.80;;;;;;;8.71;54.84;102652.28;5020604;28;20193;-73
2022/03/24 03:33:36;;;;;;;56.37;37.33;;;;;;;9.20;54.30;102643.28;5020484;28;20231;-73
2022/03/24 03:36:03;;;;;;;53.80;36.17;;;;;;;9.03;53.77;102656.41;5020683;28;20179;-73
2022/03/24 03:38:29;;;;;;;60.93;37.57;;;;;;;8.98;54.18;102652.69;5020825;28;20217;-74
2022/03/24 03:40:54;;;;;;;53.97;36.30;;;;;;;8.74;55.34;102657.63;5020378;28;20803;-74
2022/03/24 03:43:21;;;;;;;50.90;36.83;;;;;;;8.95;54.55;102649.09;5020196;28;20207;-73
2022/03/24 03:45:47;;;;;;;51.37;34.67;;;;;;;9.04;53.98;102655.59;5020669;28;20265;-74
2022/03/24 03:48:12;;;;;;;56.77;37.07;;;;;;;9.13;54.11;102646.44;5020099;28;20484;-74
2022/03/24 03:50:39;;;;;;;51.20;37.30;;;;;;;9.07;54.22;102642.72;5019513;28;20253;-73
2022/03/24 03:53:04;;;;;;;50.90;36.83;;;;;;;8.81;54.11;102643.19;5020071;28;20175;-73
2022/03/24 03:55:30;;;;;;;53.00;36.80;;;;;;;9.08;54.64;102641.91;5019789;28;20430;-74
2022/03/24 03:57:55;;;;;;;50.63;35.17;;;;;;;8.93;55.56;102644.69;5019997;28;20189;-73
2022/03/24 04:03:05;;;;;;;54.80;37.60;;;;;;;8.91;54.41;102648.91;5020465;28;20292;-73
2022/03/24 04:05:32;;;;;;;54.90;39.20;;;;;;;8.55;55.90;102655.84;5032493;28;20394;-73
2022/03/24 04:07:57;;;;;;;60.53;38.77;;;;;;;8.98;55.07;102657.03;5026452;28;20209;-71
2022/03/24 04:10:22;;;;;;;57.93;37.57;;;;;;;9.13;54.69;102654.25;5019973;28;20426;-73
2022/03/24 04:12:50;;;;;;;55.47;38.20;;;;;;;8.62;55.16;102654.44;5019765;28;20170;-74
2022/03/24 04:15:16;;;;;;;51.40;37.90;;;;;;;8.68;55.58;102650.41;5019677;28;20224;-74
2022/03/24 04:17:41;;;;;;;55.23;37.30;;;;;;;8.99;55.21;102654.50;5019567;28;20694;-77
2022/03/24 04:20:08;;;;;;;57.10;36.97;;;;;;;8.85;55.04;102652.94;5020323;28;20254;-77
2022/03/24 04:22:34;;;;;;;54.73;36.33;;;;;;;8.83;55.04;102652.88;5019360;28;20198;-77
2022/03/24 04:24:59;;;;;;;59.53;39.93;;;;;;;8.86;55.39;102657.31;5019985;28;20418;-77
2022/03/24 04:27:25;;;;;;;59.33;37.80;;;;;;;8.95;54.88;102660.38;5020137;28;20548;-76
2022/03/24 04:29:50;;;;;;;58.93;39.50;;;;;;;8.81;55.12;102654.53;5019957;28;20182;-76
2022/03/24 04:32:16;;;;;;;58.50;38.43;;;;;;;9.17;54.73;102650.97;5019007;28;20226;-76
2022/03/24 04:34:41;;;;;;;58.80;39.50;;;;;;;9.08;54.91;102652.31;5019880;28;20257;-77
2022/03/24 04:37:07;;;;;;;54.33;36.23;;;;;;;9.13;55.01;102659.44;5019146;28;20410;-72
2022/03/24 04:39:34;;;;;;;60.77;39.73;;;;;;;8.84;55.67;102656.38;5019231;28;20209;-72
2022/03/24 04:41:59;;;;;;;56.20;37.97;;;;;;;8.85;55.86;102660.72;5019662;28;20678;-72
2022/03/24 04:44:25;;;;;;;56.37;37.23;;;;;;;8.48;56.09;102657.25;5019007;28;20465;-72
2022/03/24 04:46:51;;;;;;;54.13;37.80;;;;;;;8.67;56.06;102660.75;5018980;28;20194;-72
2022/03/24 04:49:16;;;;;;;51.67;36.50;;;;;;;8.81;56.62;102664.94;5019473;28;20171;-72
2022/03/24 04:51:42;;;;;;;55.53;37.47;;;;;;;8.45;56.43;102654.50;5019063;28;20187;-72
2022/03/24 04:54:07;;;;;;;55.13;39.67;;;;;;;8.81;55.91;102658.81;5019148;28;20210;-72
2022/03/24 04:56:32;;;;;;;56.10;37.90;;;;;;;8.33;57.16;102652.16;5019459;28;20429;-73
2022/03/24 04:58:57;;;;;;;56.43;38.50;;;;;;;8.65;56.21;102665.00;5019310;28;20587;-72
2022/03/24 05:01:23;;;;;;;57.43;36.57;;;;;;;8.83;56.62;102665.00;5020750;28;20217;-72
2022/03/24 05:03:48;;;;;;;58.30;37.27;;;;;;;8.80;55.89;102664.84;5019267;28;20208;-74
2022/03/24 05:06:14;;;;;;;52.00;35.70;;;;;;;8.81;55.98;102661.41;5018621;28;20171;-73
2022/03/24 05:08:39;;;;;;;57.70;38.10;;;;;;;8.75;55.97;102659.41;5018930;28;20599;-73
2022/03/24 05:11:04;;;;;;;57.27;35.93;;;;;;;8.84;56.04;102656.38;5018949;28;20190;-72
2022/03/24 05:13:30;;;;;;;53.33;37.00;;;;;;;8.66;55.74;102652.06;5018655;28;20230;-72
2022/03/24 05:15:56;;;;;;;60.53;37.27;;;;;;;8.67;55.56;102653.84;5034188;28;20273;-72
2022/03/24 05:18:24;;;;;;;60.40;37.70;;;;;;;8.71;56.36;102650.59;5018764;28;20579;-73
2022/03/24 05:20:49;;;;;;;54.37;36.47;;;;;;;8.28;56.41;102640.66;5018733;28;20422;-73
2022/03/24 05:23:15;;;;;;;56.70;38.80;;;;;;;9.10;55.17;102645.47;5018566;28;20552;-73
2022/03/24 05:25:40;;;;;;;56.87;37.77;;;;;;;8.76;54.67;102651.69;5018985;28;20171;-73
2022/03/24 05:28:05;;;;;;;58.20;38.10;;;;;;;8.92;55.25;102650.72;5018728;28;20614;-73
2022/03/24 05:30:31;;;;;;;70.93;38.83;;;;;;;9.06;54.57;102658.28;5018648;28;20175;-73
2022/03/24 05:32:56;;;;;;;51.10;36.43;;;;;;;9.00;55.14;102651.06;5018606;28;20222;-73
2022/03/24 05:35:22;;;;;;;54.90;37.00;;;;;;;8.84;54.69;102657.25;5017884;28;20229;-72
2022/03/24 05:37:47;;;;;;;56.40;36.90;;;;;;;8.89;55.39;102653.16;5017911;28;20547;-72
2022/03/24 05:40:13;;;;;;;55.40;37.50;;;;;;;9.04;54.87;102653.00;5018307;28;20428;-72
2022/03/24 05:42:38;;;;;;;50.03;35.77;;;;;;;8.96;54.23;102656.03;5018279;28;20242;-73
2022/03/24 05:45:04;;;;;;;55.90;39.13;;;;;;;8.93;55.35;102667.22;5018930;28;20187;-73
2022/03/24 05:47:30;;;;;;;58.20;38.07;;;;;;;8.96;55.07;102654.34;5018555;28;20472;-73
2022/03/24 05:49:55;;;;;;;53.27;36.50;;;;;;;9.04;55.15;102657.31;5018390;28;20181;-73
2022/03/24 05:52:21;;;;;;;51.10;36.17;;;;;;;8.95;55.62;102655.16;5018720;28;20422;-72
2022/03/24 05:54:47;;;;;;;54.30;34.83;;;;;;;8.98;55.51;102657.91;5018485;28;20191;-72
2022/03/24 05:57:12;;;;;;;50.60;37.33;;;;;;;8.96;55.61;102658.66;5018446;28;20423;-72
2022/03/24 05:59:38;;;;;;;51.97;35.50;;;;;;;9.08;54.73;102660.13;5018926;28;20171;-73
2022/03/24 06:02:03;;;;;;;54.83;37.70;;;;;;;8.71;55.28;102663.59;5018172;28;20517;-72
2022/03/24 06:04:30;;;;;;;54.50;36.60;;;;;;;9.13;54.05;102657.72;5033994;28;20525;-73
2022/03/24 06:06:58;;;;;;;55.50;36.90;;;;;;;9.25;54.39;102658.31;5018419;28;20174;-73
2022/03/24 06:09:23;;;;;;;44.93;32.43;;;;;;;9.24;54.11;102661.72;5046475;28;20402;-72
2022/03/24 06:11:49;;;;;;;51.13;35.83;;;;;;;9.12;54.46;102668.06;5025033;28;20417;-73
2022/03/24 06:14:14;;;;;;;52.53;35.87;;;;;;;9.27;53.49;102666.19;5018611;28;20159;-74
2022/03/24 06:16:43;;;;;;;55.40;37.10;;;;;;;10.54;50.93;102667.38;5017365;28;20171;-73
2022/03/24 06:19:11;;;;;;;49.80;35.73;;;;;;;11.42;47.47;102652.50;5017957;28;20442;-73
2022/03/24 06:21:39;;;;;;;49.30;35.40;;;;;;;12.33;45.53;102652.19;5018518;28;20422;-74
2022/03/24 06:24:06;;;;;;;47.70;36.40;;;;;;;12.28;45.70;102653.75;5017937;28;20720;-72
2022/03/24 06:26:31;;;;;;;48.93;36.00;;;;;;;13.08;43.73;102648.44;5017835;28;20518;-72
2022/03/24 06:28:57;;;;;;;44.60;35.67;;;;;;;13.61;42.84;102655.19;5018501;28;20410;-72
2022/03/24 06:31:23;;;;;;;46.57;35.57;;;;;;;13.38;42.48;102660.69;5020196;28;20239;-72
2022/03/24 06:33:48;;;;;;;49.07;37.57;;;;;;;13.43;42.20;102664.31;5021260;28;20230;-73
2022/03/24 06:36:15;;;;;;;55.13;37.47;;;;;;;13.36;42.14;102651.88;5020612;28;20245;-73
2022/03/24 06:38:40;;;;;;;45.60;35.67;;;;;;;13.62;42.63;102654.34;5018398;28;20459;-73
2022/03/24 06:41:06;;;;;;;48.43;35.60;;;;;;;14.30;41.50;102648.25;5002311;28;20485;-74
2022/03/24 06:43:34;;;;;;;43.97;35.40;;;;;;;14.14;40.07;102647.88;5001733;28;20212;-73
2022/03/24 06:45:59;;;;;;;46.83;37.60;;;;;;;14.58;40.25;102649.81;5012406;28;20199;-75
2022/03/24 06:48:24;;;;;;;44.13;36.80;;;;;;;14.71;39.60;102656.28;5020886;28;20444;-74
2022/03/24 06:50:49;;;;;;;46.83;36.07;;;;;;;15.54;38.17;102651.91;5021358;28;20167;-73
2022/03/24 06:53:15;;;;;;;45.47;36.67;;;;;;;15.76;37.88;102655.88;5010527;28;20594;-73
2022/03/24 06:55:41;;;;;;;46.43;35.50;;;;;;;15.92;37.26;102654.41;5018025;28;20205;-72
2022/03/24 06:58:06;;;;;;;46.03;35.73;;;;;;;15.71;36.69;102652.25;5021388;28;20181;-72
2022/03/24 07:00:31;;;;;;;42.50;34.50;;;;;;;16.18;35.85;102651.34;5007592;28;20179;-72
2022/03/24 07:02:58;;;;;;;39.50;33.53;;;;;;;17.03;35.87;102647.41;5019502;28;20449;-71
2022/03/24 07:05:24;;;;;;;41.77;34.67;;;;;;;15.37;37.67;102664.75;5020859;28;20167;-69
2022/03/24 07:07:50;;;;;;;45.20;37.07;;;;;;;16.11;36.21;102658.25;5020849;28;20396;-69
2022/03/24 07:10:15;;;;;;;44.60;37.07;;;;;;;16.25;36.02;102660.25;5026251;28;20848;-68
2022/03/24 07:12:41;;;;;;;43.60;35.83;;;;;;;16.18;36.15;102654.00;5026480;28;20193;-70
2022/03/24 07:15:11;;;;;;;50.67;37.47;;;;;;;16.53;35.04;102653.69;5003359;28;20171;-66
2022/03/24 07:17:37;;;;;;;46.57;35.33;;;;;;;16.32;35.28;102656.88;5032128;28;20182;-68
2022/03/24 07:20:03;;;;;;;40.83;36.07;;;;;;;16.59;34.77;102656.41;5018723;28;20797;-69
2022/03/24 07:22:33;;;;;;;42.63;36.10;;;;;;;16.53;35.29;102658.94;5018736;28;20174;-71
2022/03/24 07:24:59;;;;;;;47.87;36.70;;;;;;;16.98;34.17;102659.63;5028093;28;20392;-71
2022/03/24 07:27:24;;;;;;;42.67;36.17;;;;;;;17.69;33.25;102657.88;5032884;28;20423;-71
2022/03/24 07:29:50;;;;;;;39.50;34.27;;;;;;;16.92;34.38;102665.72;5012161;28;20195;-71
2022/03/24 07:32:16;;;;;;;43.53;35.33;;;;;;;16.76;34.88;102664.56;5024395;28;20253;-71
2022/03/24 07:34:41;;;;;;;48.70;35.30;;;;;;;17.07;33.49;102665.03;5011919;28;20175;-70
2022/03/24 07:37:07;;;;;;;38.80;34.47;;;;;;;17.24;33.27;102672.25;4999661;28;20844;-72
2022/03/24 07:39:32;;;;;;;43.13;36.20;;;;;;;17.83;32.32;102663.28;5004150;28;20176;-70
2022/03/24 07:41:58;;;;;;;42.90;36.17;;;;;;;17.66;32.01;102665.75;5039167;28;20224;-71
2022/03/24 07:44:23;;;;;;;42.03;36.03;;;;;;;17.84;32.28;102658.03;5005652;28;20215;-71
2022/03/24 07:46:48;;;;;;;41.57;36.00;;;;;;;17.64;32.65;102656.94;5001312;28;20209;-71
2022/03/24 07:49:13;;;;;;;45.13;36.30;;;;;;;17.26;33.52;102663.53;5007999;28;20186;-70
2022/03/24 07:51:39;;;;;;;41.33;36.20;;;;;;;18.00;31.72;102660.84;5017521;28;20590;-70
2022/03/24 07:54:09;;;;;;;44.10;37.20;;;;;;;18.11;31.97;102653.91;5017033;28;20186;-71
2022/03/24 07:56:35;;;;;;;44.13;36.93;;;;;;;18.07;31.96;102657.41;5021733;28;20497;-71
2022/03/24 07:59:01;;;;;;;40.70;35.57;;;;;;;18.31;31.63;102655.84;5027406;28;20434;-70
2022/03/24 08:01:29;;;;;;;43.50;35.93;;;;;;;18.38;31.27;102664.72;5012297;28;20484;-72
2022/03/24 08:03:59;;;;;;;41.93;35.63;;;;;;;18.40;30.38;102666.50;5020066;28;20198;-72
2022/03/24 08:06:25;;;;;;;36.47;32.70;;;;;;;19.38;28.70;102661.81;5018791;28;20410;-73
2022/03/24 08:08:50;;;;;;;37.53;33.57;;;;;;;18.75;29.53;102665.84;5017795;28;20893;-72
2022/03/24 08:11:15;;;;;;;42.07;35.03;;;;;;;19.05;29.42;102671.31;5019183;28;20174;-71
2022/03/24 08:13:41;;;;;;;37.67;33.53;;;;;;;19.17;28.38;102666.09;5018962;28;20171;-71
2022/03/24 08:16:06;;;;;;;42.00;33.30;;;;;;;19.85;27.54;102667.25;5019001;28;20249;-73
2022/03/24 08:18:32;;;;;;;35.23;31.07;;;;;;;20.73;25.80;102669.03;5019344;28;20229;-72
2022/03/24 08:20:57;;;;;;;34.83;31.27;;;;;;;19.94;26.73;102671.66;5018092;28;20182;-70
2022/03/24 08:23:23;;;;;;;35.30;31.70;;;;;;;19.51;27.09;102669.78;5018804;28;20217;-70
2022/03/24 08:25:48;;;;;;;34.60;30.90;;;;;;;18.21;28.33;102668.06;5019694;28;20205;-71
2022/03/24 08:28:13;;;;;;;35.73;31.67;;;;;;;19.51;27.19;102671.50;5018902;28;20216;-70
2022/03/24 08:30:40;;;;;;;38.97;34.20;;;;;;;20.18;26.84;102667.28;5019627;28;20217;-70
2022/03/24 08:33:05;;;;;;;43.20;32.67;;;;;;;20.24;26.41;102669.94;5038663;28;20236;-69
2022/03/24 08:35:31;;;;;;;35.80;32.20;;;;;;;20.05;26.54;102663.72;5038489;28;20408;-69
2022/03/24 08:37:57;;;;;;;36.37;31.30;;;;;;;19.98;26.15;102672.53;5038551;28;20441;-73
2022/03/24 08:40:23;;;;;;;34.57;31.10;;;;;;;20.76;25.54;102673.44;5038184;28;20471;-72
2022/03/24 08:42:48;;;;;;;36.83;31.37;;;;;;;20.71;24.81;102665.47;5038094;28;20194;-72
2022/03/24 08:45:15;;;;;;;37.57;32.60;;;;;;;20.34;25.95;102665.50;5038350;28;20186;-72
2022/03/24 08:47:41;;;;;;;42.63;34.07;;;;;;;20.52;25.63;102667.25;5038252;28;20212;-73
2022/03/24 08:50:08;;;;;;;37.93;33.90;;;;;;;20.63;26.02;102677.84;5038128;28;20413;-74
2022/03/24 08:52:35;;;;;;;33.77;30.20;;;;;;;18.17;28.07;102680.38;5037736;28;20177;-74
2022/03/24 08:55:00;;;;;;;36.93;32.90;;;;;;;21.58;24.25;102670.50;5038006;28;20420;-71
2022/03/24 08:57:26;;;;;;;35.00;31.20;;;;;;;21.40;25.09;102674.09;5040480;28;20417;-74
2022/03/24 08:59:53;;;;;;;34.90;31.30;;;;;;;22.25;23.42;102669.16;5038593;28;20170;-69
2022/03/24 09:02:18;;;;;;;39.63;32.77;;;;;;;21.47;24.01;102676.72;5037790;28;20178;-68
2022/03/24 09:04:44;;;;;;;34.60;31.23;;;;;;;21.11;23.74;102677.78;5038010;28;20724;-71
2022/03/24 09:07:10;;;;;;;35.03;31.27;;;;;;;19.71;25.08;102674.22;5038622;28;20173;-71
2022/03/24 09:09:35;;;;;;;33.57;30.00;;;;;;;20.81;24.12;102679.59;5038058;28;20614;-71
2022/03/24 09:12:00;;;;;;;34.57;30.17;;;;;;;21.98;22.87;102667.59;5037896;28;20582;-71
2022/03/24 09:14:26;;;;;;;32.93;29.63;;;;;;;20.92;24.90;102677.81;5020107;28;20258;-69
2022/03/24 09:16:51;;;;;;;32.07;28.63;;;;;;;22.11;26.44;102671.91;5017720;28;20163;-70
2022/03/24 09:19:16;;;;;;;32.10;28.90;;;;;;;19.83;24.59;102679.56;5017299;28;20488;-71
2022/03/24 09:21:42;;;;;;;32.83;29.57;;;;;;;21.31;24.18;102677.66;5015117;28;20195;-70
2022/03/24 09:24:08;;;;;;;33.20;29.60;;;;;;;22.07;23.09;102678.16;5013560;28;20638;-72
2022/03/24 09:26:36;;;;;;;34.10;30.67;;;;;;;22.61;22.43;102683.03;5017849;28;20178;-71
2022/03/24 09:29:02;;;;;;;35.10;31.20;;;;;;;20.82;24.86;102684.03;5016490;28;20880;-71
2022/03/24 09:31:27;;;;;;;35.27;31.57;;;;;;;21.75;24.48;102671.28;5015180;28;20432;-71
2022/03/24 09:33:52;;;;;;;35.87;32.20;;;;;;;20.25;25.90;102674.31;5020128;28;20318;-71
2022/03/24 09:36:18;;;;;;;33.63;30.33;;;;;;;21.46;24.92;102674.06;5008806;28;20325;-71
2022/03/24 09:38:44;;;;;;;35.27;31.73;;;;;;;22.29;23.90;102670.88;5011393;28;20509;-71
2022/03/24 09:41:10;;;;;;;36.40;32.57;;;;;;;22.85;23.37;102673.91;5000430;28;20218;-72
2022/03/24 09:43:36;;;;;;;36.77;32.90;;;;;;;22.83;22.86;102667.72;5013163;28;20285;-72
2022/03/24 09:46:02;;;;;;;35.23;31.70;;;;;;;22.90;23.18;102665.00;5013048;28;20430;-73
2022/03/24 09:48:28;;;;;;;35.20;31.60;;;;;;;20.97;25.12;102680.44;5017184;28;20495;-71
2022/03/24 09:50:54;;;;;;;34.80;31.27;;;;;;;18.96;27.69;102683.63;5017929;28;20175;-72
2022/03/24 09:53:19;;;;;;;35.03;31.33;;;;;;;19.24;27.37;102686.44;5017392;28;20183;-71
2022/03/24 09:55:46;;;;;;;32.60;29.13;;;;;;;21.25;24.73;102675.06;5017510;28;20211;-71
2022/03/24 09:58:12;;;;;;;34.57;30.60;;;;;;;21.97;23.88;102672.00;5017200;28;20579;-72
2022/03/24 10:00:37;;;;;;;32.50;29.07;;;;;;;22.31;23.31;102674.41;5017032;28;20433;-71
2022/03/24 10:03:14;;;;;;;32.37;28.90;;;;;;;21.57;23.97;102672.28;5017504;28;20214;-72
2022/03/24 10:06:04;;;;;;;36.63;28.30;;;;;;;21.40;24.31;102672.31;5020750;28;20434;-71
2022/03/24 10:08:29;;;;;;;32.67;29.17;;;;;;;21.36;24.00;102671.47;5021524;28;20456;-71
2022/03/24 10:11:08;;;;;;;33.93;29.40;;;;;;;22.34;23.30;102669.09;5020936;28;20469;-70
2022/03/24 10:13:49;;;;;;;34.00;28.90;;;;;;;20.57;25.45;102675.22;5020838;28;20178;-71
2022/03/24 10:16:33;;;;;;;30.97;27.73;;;;;;;22.43;22.85;102662.81;5020986;28;20440;-71
2022/03/24 10:19:06;;;;;;;31.77;28.40;;;;;;;22.35;23.07;102664.66;5018258;28;20433;-68
2022/03/24 10:21:33;;;;;;;34.07;28.87;;;;;;;20.66;24.98;102670.78;5017225;28;20516;-70
2022/03/24 10:24:06;;;;;;;37.97;28.43;;;;;;;20.05;24.92;102676.09;5020307;28;20552;-69
2022/03/24 10:26:50;;;;;;;31.70;27.30;;;;;;;21.33;23.98;102670.59;5020585;28;20450;-69
2022/03/24 10:29:21;;;;;;;31.20;27.90;;;;;;;22.29;23.03;102670.88;5020002;28;20432;-69
2022/03/24 10:31:55;;;;;;;31.20;26.60;;;;;;;20.74;24.18;102680.50;5031077;28;20420;-68
2022/03/24 10:34:41;;;;;;;31.80;28.60;;;;;;;21.24;23.86;102674.16;5020147;28;20483;-69
2022/03/24 10:37:17;;;;;;;31.23;27.30;;;;;;;21.85;23.41;102673.00;5020682;28;20540;-69
2022/03/24 10:40:06;;;;;;;35.80;28.20;;;;;;;19.46;26.63;102674.16;5020280;28;20420;-70
2022/03/24 10:42:34;;;;;;;33.73;29.87;;;;;;;20.95;25.50;102679.59;5019595;28;20414;-70
2022/03/24 10:45:06;;;;;;;35.67;31.77;;;;;;;21.49;24.42;102661.66;5019716;28;20426;-72
2022/03/24 10:47:41;;;;;;;32.93;29.33;;;;;;;21.66;24.57;102658.97;5020385;28;20516;-69
2022/03/24 10:50:40;;;;;;;38.47;30.63;;;;;;;21.38;25.03;102663.50;5019765;28;20433;-70
2022/03/24 10:53:08;;;;;;;38.53;30.57;;;;;;;22.22;23.75;102647.94;5017479;28;20429;-69
2022/03/24 10:55:40;;;;;;;35.93;30.50;;;;;;;21.03;25.18;102661.88;5019042;28;20858;-69
2022/03/24 10:58:08;;;;;;;37.10;32.00;;;;;;;22.02;24.27;102648.09;5019352;28;20879;-70
2022/03/24 11:00:33;;;;;;;33.97;29.50;;;;;;;21.98;24.22;102652.53;5018305;28;20846;-71
2022/03/24 11:02:59;;;;;;;36.07;29.60;;;;;;;19.51;27.37;102661.84;5018659;28;20466;-71
2022/03/24 11:05:24;;;;;;;34.50;29.47;;;;;;;20.29;26.17;102659.31;5019437;28;20179;-69
2022/03/24 11:07:53;;;;;;;36.43;28.37;;;;;;;19.81;27.21;102654.00;5019742;28;20614;-68
2022/03/24 11:10:22;;;;;;;31.10;27.80;;;;;;;20.33;26.01;102663.72;5013519;28;20325;-69
2022/03/24 11:12:52;;;;;;;32.00;28.50;;;;;;;21.85;24.42;102649.09;5029846;28;20432;-70